createdAt,value
2023-05-14T00:00:22.277Z,13.93
2023-05-14T00:02:49.084Z,13.90
2023-05-14T00:05:15.585Z,13.87
2023-05-14T00:07:41.977Z,13.87
2023-05-14T00:10:08.832Z,13.77
2023-05-14T00:12:35.189Z,13.73
2023-05-14T00:15:01.622Z,13.73
2023-05-14T00:17:28.124Z,13.71
2023-05-14T00:19:54.525Z,13.70
2023-05-14T00:22:20.914Z,13.67
2023-05-14T00:24:47.294Z,13.65
2023-05-14T00:27:13.940Z,13.61
2023-05-14T00:29:40.335Z,13.58
2023-05-14T00:32:07.107Z,13.55
2023-05-14T00:34:33.562Z,13.52
2023-05-14T00:36:59.924Z,13.51
2023-05-14T00:39:26.260Z,13.51
2023-05-14T00:41:52.620Z,13.47
2023-05-14T00:44:19.036Z,13.43
2023-05-14T00:46:45.454Z,13.43
2023-05-14T00:49:12.015Z,13.42
2023-05-14T00:51:39.402Z,13.39
2023-05-14T00:54:06.342Z,13.38
2023-05-14T00:56:32.750Z,13.35
2023-05-14T00:58:59.394Z,13.32
2023-05-14T01:01:28.490Z,13.33
2023-05-14T01:03:57.733Z,13.26
2023-05-14T01:06:39.887Z,13.24
2023-05-14T01:09:17.206Z,13.21
2023-05-14T01:11:55.616Z,13.16
2023-05-14T01:14:34.531Z,13.16
2023-05-14T01:17:04.029Z,13.13
2023-05-14T01:19:37.908Z,13.06
2023-05-14T01:22:04.501Z,13.06
2023-05-14T01:24:30.982Z,13.02
2023-05-14T01:27:06.994Z,13.03
2023-05-14T01:29:37.279Z,13.01
2023-05-14T01:32:07.302Z,12.96
2023-05-14T01:34:36.276Z,12.95
2023-05-14T01:37:04.065Z,12.92
2023-05-14T01:39:32.457Z,12.93
2023-05-14T01:42:00.484Z,12.87
2023-05-14T01:44:26.892Z,12.85
2023-05-14T01:46:53.249Z,12.81
2023-05-14T01:49:19.635Z,12.82
2023-05-14T01:51:46.042Z,12.79
2023-05-14T01:54:12.391Z,12.80
2023-05-14T01:56:38.737Z,12.80
2023-05-14T01:59:05.219Z,12.75
2023-05-14T02:01:31.715Z,12.77
2023-05-14T02:03:58.184Z,12.73
2023-05-14T02:06:24.523Z,12.70
2023-05-14T02:08:50.918Z,12.70
2023-05-14T02:11:17.337Z,12.66
2023-05-14T02:13:43.839Z,12.67
2023-05-14T02:16:10.279Z,12.64
2023-05-14T02:18:36.688Z,12.64
2023-05-14T02:21:03.123Z,12.64
2023-05-14T02:23:40.370Z,12.63
2023-05-14T02:26:08.439Z,12.56
2023-05-14T02:28:34.803Z,12.58
2023-05-14T02:31:01.544Z,12.56
2023-05-14T02:33:28.366Z,12.54
2023-05-14T02:35:54.766Z,12.50
2023-05-14T02:38:21.167Z,12.44
2023-05-14T02:40:47.518Z,12.39
2023-05-14T02:43:13.886Z,12.44
2023-05-14T02:45:40.226Z,12.42
2023-05-14T02:48:06.730Z,12.39
2023-05-14T02:50:33.151Z,12.41
2023-05-14T02:52:59.991Z,12.35
2023-05-14T02:55:26.460Z,12.35
2023-05-14T02:57:53.275Z,12.38
2023-05-14T03:00:19.905Z,12.38
2023-05-14T03:02:46.756Z,12.33
2023-05-14T03:05:13.612Z,12.26
2023-05-14T03:07:39.944Z,12.30
2023-05-14T03:10:06.744Z,12.29
2023-05-14T03:12:33.111Z,12.31
2023-05-14T03:14:59.454Z,12.30
2023-05-14T03:17:25.815Z,12.32
2023-05-14T03:19:52.201Z,12.32
2023-05-14T03:22:18.654Z,12.31
2023-05-14T03:24:44.996Z,12.27
2023-05-14T03:27:11.346Z,12.18
2023-05-14T03:29:37.709Z,12.15
2023-05-14T03:32:04.394Z,12.22
2023-05-14T03:34:30.791Z,12.23
2023-05-14T03:36:57.258Z,12.15
2023-05-14T03:39:23.715Z,12.18
2023-05-14T03:41:50.070Z,12.21
2023-05-14T03:44:16.459Z,12.15
2023-05-14T03:46:42.856Z,12.09
2023-05-14T03:49:09.288Z,12.03
2023-05-14T03:51:35.691Z,11.94
2023-05-14T03:54:03.295Z,11.88
2023-05-14T03:56:29.617Z,11.97
2023-05-14T03:58:56.045Z,12.01
2023-05-14T04:01:22.393Z,11.99
2023-05-14T04:03:48.899Z,12.05
2023-05-14T04:06:16.105Z,12.09
2023-05-14T04:08:42.496Z,12.00
2023-05-14T04:11:08.849Z,11.97
2023-05-14T04:13:35.262Z,12.03
2023-05-14T04:16:01.650Z,12.08
2023-05-14T04:18:28.113Z,12.06
2023-05-14T04:20:54.544Z,12.07
2023-05-14T04:23:21.725Z,11.99
2023-05-14T04:25:48.070Z,11.98
2023-05-14T04:28:14.924Z,12.04
2023-05-14T04:30:41.264Z,12.06
2023-05-14T04:33:07.852Z,12.07
2023-05-14T04:35:34.292Z,12.03
2023-05-14T04:38:00.774Z,12.04
2023-05-14T04:40:27.487Z,12.07
2023-05-14T04:42:53.924Z,12.06
2023-05-14T04:45:20.387Z,12.07
2023-05-14T04:47:47.236Z,12.09
2023-05-14T04:50:13.694Z,12.00
2023-05-14T04:52:40.282Z,12.07
2023-05-14T04:55:07.244Z,12.13
2023-05-14T04:57:33.611Z,12.08
2023-05-14T04:59:59.966Z,12.12
2023-05-14T05:02:26.335Z,12.18
2023-05-14T05:04:52.773Z,12.19
2023-05-14T05:07:19.130Z,12.16
2023-05-14T05:09:45.557Z,12.14
2023-05-14T05:12:11.976Z,12.16
2023-05-14T05:14:38.348Z,12.16
2023-05-14T05:17:04.990Z,12.16
2023-05-14T05:19:42.583Z,12.16
2023-05-14T05:22:10.344Z,12.19
2023-05-14T05:24:36.691Z,12.19
2023-05-14T05:27:03.469Z,12.15
2023-05-14T05:29:29.882Z,12.14
2023-05-14T05:31:56.287Z,12.24
2023-05-14T05:34:22.873Z,12.32
2023-05-14T05:36:49.244Z,12.33
2023-05-14T05:39:15.587Z,12.24
2023-05-14T05:41:42.470Z,12.21
2023-05-14T05:44:08.818Z,12.27
2023-05-14T05:46:35.279Z,12.28
2023-05-14T05:49:01.691Z,12.35
2023-05-14T05:51:28.025Z,12.36
2023-05-14T05:53:54.357Z,12.35
2023-05-14T05:56:22.050Z,12.33
2023-05-14T05:58:48.387Z,12.37
2023-05-14T06:01:14.792Z,12.32
2023-05-14T06:03:41.191Z,12.37
2023-05-14T06:06:07.740Z,12.47
2023-05-14T06:08:34.121Z,12.50
2023-05-14T06:11:00.475Z,12.49
2023-05-14T06:13:26.853Z,12.53
2023-05-14T06:15:53.220Z,12.47
2023-05-14T06:18:19.583Z,12.50
2023-05-14T06:20:45.929Z,12.57
2023-05-14T06:23:12.442Z,12.61
2023-05-14T06:25:38.922Z,12.67
2023-05-14T06:28:05.254Z,12.63
2023-05-14T06:30:31.685Z,12.68
2023-05-14T06:32:58.046Z,12.61
2023-05-14T06:35:24.532Z,12.66
2023-05-14T06:37:50.878Z,12.74
2023-05-14T06:40:17.566Z,12.76
2023-05-14T06:42:43.956Z,12.86
2023-05-14T06:45:10.924Z,12.79
2023-05-14T06:47:37.353Z,12.84
2023-05-14T06:50:04.205Z,12.95
2023-05-14T06:52:30.622Z,13.06
2023-05-14T06:54:57.002Z,13.09
2023-05-14T06:57:23.366Z,13.14
2023-05-14T06:59:49.729Z,13.22
2023-05-14T07:02:16.195Z,13.29
2023-05-14T07:04:42.602Z,13.36
2023-05-14T07:07:10.554Z,13.38
2023-05-14T07:09:36.908Z,13.34
2023-05-14T07:12:03.492Z,13.37
2023-05-14T07:14:29.857Z,13.43
2023-05-14T07:16:57.230Z,13.43
2023-05-14T07:19:23.687Z,13.52
2023-05-14T07:21:50.033Z,13.54
2023-05-14T07:24:16.416Z,13.60
2023-05-14T07:26:43.737Z,13.67
2023-05-14T07:29:10.073Z,13.65
2023-05-14T07:31:36.483Z,13.69
2023-05-14T07:34:02.839Z,13.78
2023-05-14T07:36:29.289Z,13.84
2023-05-14T07:38:55.662Z,13.89
2023-05-14T07:41:22.013Z,13.97
2023-05-14T07:43:48.395Z,13.98
2023-05-14T07:46:14.995Z,14.02
2023-05-14T07:48:41.406Z,14.04
2023-05-14T07:51:07.809Z,14.12
2023-05-14T07:53:34.164Z,14.22
2023-05-14T07:56:00.549Z,14.28
2023-05-14T07:58:28.025Z,14.36
2023-05-14T08:00:54.623Z,14.41
2023-05-14T08:03:21.153Z,14.47
2023-05-14T08:05:47.717Z,14.49
2023-05-14T08:08:14.068Z,14.53
2023-05-14T08:10:40.485Z,14.54
2023-05-14T08:13:06.942Z,14.58
2023-05-14T08:15:33.296Z,14.60
2023-05-14T08:18:03.456Z,14.63
2023-05-14T08:20:31.105Z,14.69
2023-05-14T08:23:01.490Z,14.76
2023-05-14T08:25:27.842Z,14.83
2023-05-14T08:27:54.337Z,14.88
2023-05-14T08:30:22.831Z,14.98
2023-05-14T08:32:49.495Z,15.07
2023-05-14T08:35:16.589Z,15.13
2023-05-14T08:37:42.959Z,15.15
2023-05-14T08:40:09.996Z,15.19
2023-05-14T08:42:40.443Z,15.22
2023-05-14T08:45:15.857Z,15.31
2023-05-14T08:47:44.714Z,15.33
2023-05-14T08:50:11.380Z,15.38
2023-05-14T08:52:37.959Z,15.47
2023-05-14T08:55:06.316Z,15.50
2023-05-14T08:57:34.097Z,15.58
2023-05-14T09:00:01.359Z,15.65
2023-05-14T09:02:29.933Z,15.67
2023-05-14T09:04:59.011Z,15.67
2023-05-14T09:07:26.056Z,15.71
2023-05-14T09:09:53.429Z,15.69
2023-05-14T09:12:20.665Z,15.70
2023-05-14T09:14:48.442Z,15.72
2023-05-14T09:17:15.361Z,15.72
2023-05-14T09:19:43.610Z,15.70
2023-05-14T09:22:13.062Z,15.63
2023-05-14T09:24:39.878Z,15.72
2023-05-14T09:27:06.750Z,15.76
2023-05-14T09:29:33.960Z,15.82
2023-05-14T09:32:05.514Z,15.90
2023-05-14T09:34:37.985Z,15.94
2023-05-14T09:37:06.468Z,15.96
2023-05-14T09:39:34.195Z,16.04
2023-05-14T09:42:01.174Z,16.03
2023-05-14T09:44:28.023Z,16.13
2023-05-14T09:46:54.804Z,16.16
2023-05-14T09:49:21.582Z,16.19
2023-05-14T09:51:51.237Z,16.31
2023-05-14T09:54:17.629Z,16.33
2023-05-14T09:56:44.409Z,16.30
2023-05-14T09:59:11.004Z,16.39
2023-05-14T10:01:37.936Z,16.46
2023-05-14T10:04:07.133Z,16.48
2023-05-14T10:06:36.934Z,16.50
2023-05-14T10:09:05.581Z,16.59
2023-05-14T10:11:35.995Z,16.65
2023-05-14T10:14:08.971Z,16.64
2023-05-14T10:16:40.849Z,16.65
2023-05-14T10:19:11.900Z,16.62
2023-05-14T10:21:40.909Z,16.69
2023-05-14T10:24:09.127Z,16.76
2023-05-14T10:26:39.297Z,16.74
2023-05-14T10:29:06.516Z,16.78
2023-05-14T10:31:55.319Z,16.86
2023-05-14T10:34:38.367Z,16.89
2023-05-14T10:37:08.280Z,16.94
2023-05-14T10:39:49.637Z,16.96
2023-05-14T10:42:32.170Z,17.01
2023-05-14T10:45:02.348Z,17.05
2023-05-14T10:47:29.209Z,17.10
2023-05-14T10:49:57.877Z,17.11
2023-05-14T10:52:25.173Z,17.19
2023-05-14T10:54:56.560Z,17.32
2023-05-14T10:57:24.708Z,17.34
2023-05-14T10:59:55.580Z,17.36
2023-05-14T11:02:26.933Z,17.35
2023-05-14T11:04:56.116Z,17.39
2023-05-14T11:07:34.413Z,17.47
2023-05-14T11:10:03.403Z,17.50
2023-05-14T11:12:30.212Z,17.51
2023-05-14T11:14:58.584Z,17.53
2023-05-14T11:17:30.032Z,17.58
2023-05-14T11:19:57.452Z,17.55
2023-05-14T11:22:24.554Z,17.62
2023-05-14T11:24:51.178Z,17.68
2023-05-14T11:27:18.653Z,17.76
2023-05-14T11:29:46.721Z,17.81
2023-05-14T11:32:14.727Z,17.91
2023-05-14T11:34:42.876Z,17.93
2023-05-14T11:37:10.187Z,17.99
2023-05-14T11:39:39.679Z,18.03
2023-05-14T11:42:12.170Z,18.06
2023-05-14T11:44:38.851Z,18.09
2023-05-14T11:47:05.558Z,18.06
2023-05-14T11:49:32.404Z,18.07
2023-05-14T11:52:00.141Z,18.06
2023-05-14T11:54:28.203Z,18.10
2023-05-14T11:56:56.288Z,18.13
2023-05-14T11:59:28.011Z,18.15
2023-05-14T12:01:55.424Z,18.16
2023-05-14T12:04:22.818Z,18.20
2023-05-14T12:06:50.512Z,18.26
2023-05-14T12:09:18.353Z,18.31
2023-05-14T12:11:48.820Z,18.32
2023-05-14T12:14:17.349Z,18.25
2023-05-14T12:16:44.643Z,18.28
2023-05-14T12:19:12.327Z,18.31
2023-05-14T12:21:39.197Z,18.35
2023-05-14T12:24:09.040Z,18.34
2023-05-14T12:26:35.584Z,18.35
2023-05-14T12:29:03.421Z,18.36
2023-05-14T12:31:31.589Z,18.42
2023-05-14T12:33:58.136Z,18.43
2023-05-14T12:36:24.672Z,18.44
2023-05-14T12:38:56.932Z,18.46
2023-05-14T12:41:23.306Z,18.46
2023-05-14T12:43:49.744Z,18.50
2023-05-14T12:46:16.996Z,18.57
2023-05-14T12:48:43.424Z,18.62
2023-05-14T12:51:09.827Z,18.64
2023-05-14T12:53:36.172Z,18.65
2023-05-14T12:56:02.587Z,18.71
2023-05-14T12:58:29.053Z,18.77
2023-05-14T13:00:56.358Z,18.80
2023-05-14T13:03:23.052Z,18.82
2023-05-14T13:05:52.166Z,18.75
2023-05-14T13:08:21.401Z,18.77
2023-05-14T13:10:47.936Z,18.78
2023-05-14T13:13:15.952Z,18.88
2023-05-14T13:15:42.667Z,18.94
2023-05-14T13:18:09.083Z,18.97
2023-05-14T13:20:35.641Z,18.99
2023-05-14T13:23:01.969Z,18.99
2023-05-14T13:25:28.366Z,18.98
2023-05-14T13:27:55.185Z,18.96
2023-05-14T13:30:21.704Z,18.99
2023-05-14T13:32:48.321Z,18.93
2023-05-14T13:35:14.995Z,18.90
2023-05-14T13:37:43.230Z,18.89
2023-05-14T13:40:10.306Z,18.92
2023-05-14T13:42:37.260Z,18.91
2023-05-14T13:45:04.098Z,18.95
2023-05-14T13:47:31.206Z,18.95
2023-05-14T13:49:57.571Z,18.92
2023-05-14T13:52:23.956Z,18.95
2023-05-14T13:54:50.420Z,19.02
2023-05-14T13:57:16.777Z,19.04
2023-05-14T13:59:43.147Z,19.05
2023-05-14T14:02:09.513Z,19.04
2023-05-14T14:04:35.851Z,19.07
2023-05-14T14:07:02.188Z,19.07
2023-05-14T14:09:28.554Z,19.00
2023-05-14T14:11:55.059Z,19.05
2023-05-14T14:14:21.434Z,19.07
2023-05-14T14:16:47.801Z,19.06
2023-05-14T14:19:16.155Z,19.06
2023-05-14T14:21:43.426Z,19.05
2023-05-14T14:24:09.771Z,19.02
2023-05-14T14:26:36.263Z,19.05
2023-05-14T14:29:02.635Z,19.07
2023-05-14T14:31:28.996Z,19.09
2023-05-14T14:33:55.437Z,19.09
2023-05-14T14:36:21.899Z,19.05
2023-05-14T14:38:48.249Z,19.01
2023-05-14T14:41:14.589Z,18.97
2023-05-14T14:43:41.113Z,18.99
2023-05-14T14:46:09.743Z,19.02
2023-05-14T14:48:39.951Z,19.00
2023-05-14T14:51:07.307Z,19.01
2023-05-14T14:53:34.320Z,18.99
2023-05-14T14:56:01.000Z,18.97
2023-05-14T14:58:27.785Z,18.89
2023-05-14T15:00:56.282Z,18.87
2023-05-14T15:03:23.651Z,18.88
2023-05-14T15:05:51.669Z,18.86
2023-05-14T15:08:18.080Z,18.81
2023-05-14T15:10:44.683Z,18.79
2023-05-14T15:13:12.298Z,18.83
2023-05-14T15:15:38.640Z,18.80
2023-05-14T15:18:05.271Z,18.82
2023-05-14T15:20:31.790Z,18.77
2023-05-14T15:22:58.234Z,18.74
2023-05-14T15:25:25.314Z,18.77
2023-05-14T15:27:51.955Z,18.77
2023-05-14T15:30:18.397Z,18.76
2023-05-14T15:32:45.710Z,18.77
2023-05-14T15:35:12.445Z,18.74
2023-05-14T15:37:41.840Z,18.71
2023-05-14T15:40:09.250Z,18.70
2023-05-14T15:42:36.433Z,18.68
2023-05-14T15:45:02.947Z,18.65
2023-05-14T15:47:29.470Z,18.59
2023-05-14T15:49:55.880Z,18.59
2023-05-14T15:52:22.991Z,18.59
2023-05-14T15:54:49.375Z,18.56
2023-05-14T15:57:17.835Z,18.55
2023-05-14T15:59:46.684Z,18.54
2023-05-14T16:02:14.256Z,18.48
2023-05-14T16:04:40.632Z,18.45
2023-05-14T16:07:09.833Z,18.45
2023-05-14T16:09:36.822Z,18.45
2023-05-14T16:12:04.304Z,18.46
2023-05-14T16:14:30.738Z,18.47
2023-05-14T16:16:57.230Z,18.46
2023-05-14T16:19:23.604Z,18.47
2023-05-14T16:21:49.989Z,18.46
2023-05-14T16:24:18.402Z,18.47
2023-05-14T16:26:44.826Z,18.47
2023-05-14T16:29:11.507Z,18.43
2023-05-14T16:31:38.275Z,18.43
2023-05-14T16:34:04.641Z,18.42
2023-05-14T16:36:31.364Z,18.43
2023-05-14T16:39:07.274Z,18.41
2023-05-14T16:41:35.644Z,18.36
2023-05-14T16:44:02.545Z,18.32
2023-05-14T16:46:29.386Z,18.28
2023-05-14T16:48:56.152Z,18.25
2023-05-14T16:51:22.586Z,18.22
2023-05-14T16:53:49.078Z,18.18
2023-05-14T16:56:15.524Z,18.11
2023-05-14T16:58:41.976Z,18.09
2023-05-14T17:01:09.794Z,18.04
2023-05-14T17:03:36.783Z,18.04
2023-05-14T17:06:03.470Z,18.06
2023-05-14T17:08:33.332Z,18.02
2023-05-14T17:10:59.717Z,17.99
2023-05-14T17:13:26.240Z,17.94
2023-05-14T17:15:52.779Z,17.93
2023-05-14T17:18:19.290Z,17.92
2023-05-14T17:20:45.761Z,17.90
2023-05-14T17:23:20.366Z,17.88
2023-05-14T17:25:47.859Z,17.82
2023-05-14T17:28:16.308Z,17.80
2023-05-14T17:30:43.930Z,17.79
2023-05-14T17:33:11.286Z,17.71
2023-05-14T17:35:37.824Z,17.60
2023-05-14T17:38:06.610Z,17.54
2023-05-14T17:40:34.567Z,17.50
2023-05-14T17:43:01.128Z,17.39
2023-05-14T17:45:28.554Z,17.31
2023-05-14T17:47:57.049Z,17.29
2023-05-14T17:50:23.476Z,17.26
2023-05-14T17:52:49.847Z,17.16
2023-05-14T17:55:17.497Z,17.10
2023-05-14T17:57:43.893Z,17.04
2023-05-14T18:00:10.854Z,16.97
2023-05-14T18:02:37.521Z,16.99
2023-05-14T18:05:04.271Z,16.98
2023-05-14T18:07:30.835Z,16.97
2023-05-14T18:09:57.832Z,16.92
2023-05-14T18:12:27.704Z,16.75
2023-05-14T18:14:54.330Z,16.62
2023-05-14T18:17:21.070Z,16.60
2023-05-14T18:19:47.613Z,16.55
2023-05-14T18:22:14.209Z,16.52
2023-05-14T18:24:40.641Z,16.46
2023-05-14T18:27:06.995Z,16.42
2023-05-14T18:29:33.466Z,16.35
2023-05-14T18:31:59.869Z,16.22
2023-05-14T18:34:26.330Z,16.17
2023-05-14T18:36:52.711Z,16.16
2023-05-14T18:39:19.213Z,16.04
2023-05-14T18:41:45.634Z,16.01
2023-05-14T18:44:11.980Z,16.02
2023-05-14T18:46:38.454Z,16.01
2023-05-14T18:49:04.844Z,16.00
2023-05-14T18:51:38.380Z,16.01
2023-05-14T18:54:04.755Z,15.94
2023-05-14T18:56:31.264Z,15.82
2023-05-14T18:58:57.614Z,15.72
2023-05-14T19:01:25.612Z,15.64
2023-05-14T19:03:53.239Z,15.65
2023-05-14T19:06:19.857Z,15.61
2023-05-14T19:08:46.404Z,15.59
2023-05-14T19:11:12.887Z,15.58
2023-05-14T19:13:39.267Z,15.58
2023-05-14T19:16:05.814Z,15.51
2023-05-14T19:18:32.357Z,15.37
2023-05-14T19:20:58.981Z,15.30
2023-05-14T19:23:25.399Z,15.16
2023-05-14T19:25:51.777Z,15.15
2023-05-14T19:28:19.863Z,15.20
2023-05-14T19:30:47.876Z,15.20
2023-05-14T19:33:19.490Z,15.15
2023-05-14T19:35:47.392Z,15.01
2023-05-14T19:38:14.677Z,14.95
2023-05-14T19:40:42.991Z,14.95
2023-05-14T19:43:11.681Z,14.98
2023-05-14T19:45:39.348Z,14.91
2023-05-14T19:48:06.593Z,14.83
2023-05-14T19:50:33.657Z,14.84
2023-05-14T19:53:00.426Z,14.80
2023-05-14T19:55:26.952Z,14.81
2023-05-14T19:57:53.415Z,14.83
2023-05-14T20:00:20.772Z,14.81
2023-05-14T20:02:54.516Z,14.71
2023-05-14T20:05:27.501Z,14.75
2023-05-14T20:07:56.906Z,14.73
2023-05-14T20:10:24.121Z,14.71
2023-05-14T20:12:50.706Z,14.71
2023-05-14T20:15:17.068Z,14.68
2023-05-14T20:17:43.595Z,14.59
2023-05-14T20:20:10.916Z,14.59
2023-05-14T20:22:38.310Z,14.59
2023-05-14T20:25:05.219Z,14.52
2023-05-14T20:27:32.603Z,14.50
2023-05-14T20:29:58.980Z,14.47
2023-05-14T20:32:25.421Z,14.49
2023-05-14T20:34:51.956Z,14.44
2023-05-14T20:37:19.801Z,14.45
2023-05-14T20:39:46.680Z,14.43
2023-05-14T20:42:13.132Z,14.43
2023-05-14T20:44:39.895Z,14.43
2023-05-14T20:47:06.292Z,14.41
2023-05-14T20:49:32.628Z,14.39
2023-05-14T20:51:58.969Z,14.37
2023-05-14T20:54:25.555Z,14.33
2023-05-14T20:56:51.977Z,14.27
2023-05-14T20:59:18.312Z,14.23
2023-05-14T21:01:44.678Z,14.16
2023-05-14T21:04:11.168Z,14.16
2023-05-14T21:06:37.647Z,14.16
2023-05-14T21:09:04.095Z,14.09
2023-05-14T21:11:30.453Z,14.06
2023-05-14T21:13:57.448Z,14.06
2023-05-14T21:16:23.822Z,14.06
2023-05-14T21:18:50.254Z,14.05
2023-05-14T21:21:16.707Z,14.05
2023-05-14T21:23:43.131Z,14.01
2023-05-14T21:26:09.549Z,14.00
2023-05-14T21:28:35.878Z,13.94
2023-05-14T21:31:02.228Z,13.92
2023-05-14T21:33:28.978Z,13.90
2023-05-14T21:35:55.465Z,13.86
2023-05-14T21:38:21.846Z,13.81
2023-05-14T21:40:48.184Z,13.78
2023-05-14T21:43:14.600Z,13.76
2023-05-14T21:45:40.955Z,13.74
2023-05-14T21:48:07.919Z,13.72
2023-05-14T21:50:34.379Z,13.71
2023-05-14T21:53:00.780Z,13.70
2023-05-14T21:55:28.134Z,13.68
2023-05-14T21:57:54.700Z,13.68
2023-05-14T22:00:24.021Z,13.70
2023-05-14T22:02:52.373Z,13.69
2023-05-14T22:05:19.509Z,13.66
2023-05-14T22:07:45.931Z,13.62
2023-05-14T22:10:13.776Z,13.58
2023-05-14T22:12:40.765Z,13.53
2023-05-14T22:15:08.455Z,13.53
2023-05-14T22:17:35.038Z,13.52
2023-05-14T22:20:02.386Z,13.52
2023-05-14T22:22:28.821Z,13.50
2023-05-14T22:24:55.660Z,13.49
2023-05-14T22:27:23.070Z,13.48
2023-05-14T22:29:49.412Z,13.48
2023-05-14T22:32:15.768Z,13.45
2023-05-14T22:34:42.251Z,13.43
2023-05-14T22:37:08.901Z,13.41
2023-05-14T22:39:35.664Z,13.38
2023-05-14T22:42:02.048Z,13.42
2023-05-14T22:44:29.899Z,13.38
2023-05-14T22:46:56.718Z,13.36
2023-05-14T22:49:23.300Z,13.35
2023-05-14T22:51:54.043Z,13.34
2023-05-14T22:54:20.931Z,13.33
2023-05-14T22:56:47.505Z,13.33
2023-05-14T22:59:13.904Z,13.35
2023-05-14T23:01:40.262Z,13.35
2023-05-14T23:04:06.692Z,13.35
2023-05-14T23:06:33.120Z,13.36
2023-05-14T23:08:59.481Z,13.34
2023-05-14T23:11:26.607Z,13.35
2023-05-14T23:13:52.974Z,13.33
2023-05-14T23:16:20.396Z,13.31
2023-05-14T23:18:46.907Z,13.31
2023-05-14T23:21:14.154Z,13.33
2023-05-14T23:23:40.581Z,13.32
2023-05-14T23:26:06.937Z,13.28
2023-05-14T23:28:33.352Z,13.22
2023-05-14T23:30:59.776Z,13.27
2023-05-14T23:33:26.480Z,13.31
2023-05-14T23:35:53.006Z,13.29
2023-05-14T23:38:19.560Z,13.28
2023-05-14T23:40:45.917Z,13.32
2023-05-14T23:43:12.258Z,13.29
2023-05-14T23:45:38.670Z,13.28
2023-05-14T23:48:05.589Z,13.26
2023-05-14T23:50:31.962Z,13.23
2023-05-14T23:52:58.349Z,13.19
2023-05-14T23:55:24.883Z,13.16
2023-05-14T23:57:51.441Z,13.13
